createdAt,value
2018-11-29T00:00:31.844Z,98997.24
2018-11-29T00:03:00.443Z,99000.00
2018-11-29T00:05:29.100Z,98995.24
2018-11-29T00:07:57.775Z,98985.63
2018-11-29T00:10:27.099Z,98979.19
2018-11-29T00:12:55.789Z,98969.55
2018-11-29T00:15:24.493Z,98969.25
2018-11-29T00:17:53.117Z,98981.53
2018-11-29T00:20:22.061Z,98976.46
2018-11-29T00:22:51.566Z,98971.25
2018-11-29T00:25:20.707Z,98973.70
2018-11-29T00:27:49.637Z,98981.02
2018-11-29T00:30:20.161Z,98990.97
2018-11-29T00:32:49.758Z,98988.46
2018-11-29T00:35:18.811Z,99002.66
2018-11-29T00:37:47.577Z,99012.63
2018-11-29T00:40:19.027Z,99011.17
2018-11-29T00:42:48.154Z,99016.17
2018-11-29T00:45:20.512Z,98999.67
2018-11-29T00:47:49.615Z,99010.12
2018-11-29T00:50:18.939Z,98991.14
2018-11-29T00:52:48.419Z,99012.52
2018-11-29T00:55:18.391Z,99003.39
2018-11-29T00:57:47.019Z,98996.73
2018-11-29T01:00:19.651Z,98985.27
2018-11-29T01:02:48.294Z,98998.27
2018-11-29T01:05:17.064Z,98992.34
2018-11-29T01:07:45.827Z,98988.19
2018-11-29T01:10:15.427Z,98978.89
2018-11-29T01:12:44.660Z,98967.28
2018-11-29T01:15:15.857Z,98971.08
2018-11-29T01:17:45.330Z,98970.44
2018-11-29T01:20:17.247Z,98964.55
2018-11-29T01:22:45.821Z,98960.39
2018-11-29T01:25:15.380Z,98958.05
2018-11-29T01:27:47.294Z,98954.70
2018-11-29T01:30:17.946Z,98966.51
2018-11-29T01:32:47.630Z,98975.75
2018-11-29T01:35:18.115Z,98975.78
2018-11-29T01:37:46.758Z,98983.10
2018-11-29T01:40:16.927Z,98979.36
2018-11-29T01:42:54.718Z,98977.27
2018-11-29T01:45:23.377Z,98991.84
2018-11-29T01:47:52.883Z,98987.41
2018-11-29T01:50:21.507Z,98986.91
2018-11-29T01:52:50.242Z,98989.17
2018-11-29T01:55:18.845Z,98972.71
2018-11-29T01:57:48.463Z,98974.64
2018-11-29T02:00:17.730Z,98965.42
2018-11-29T02:02:47.712Z,98962.48
2018-11-29T02:05:16.342Z,98951.62
2018-11-29T02:07:45.003Z,98960.22
2018-11-29T02:10:20.772Z,98949.38
2018-11-29T02:12:50.099Z,98953.36
2018-11-29T02:15:18.750Z,98955.69
2018-11-29T02:17:47.506Z,98964.64
2018-11-29T02:20:17.410Z,98962.71
2018-11-29T02:22:46.361Z,98967.32
2018-11-29T02:25:14.947Z,98960.88
2018-11-29T02:27:43.564Z,98959.02
2018-11-29T02:30:13.959Z,98957.43
2018-11-29T02:32:42.658Z,98950.78
2018-11-29T02:35:11.203Z,98940.34
2018-11-29T02:37:39.837Z,98938.58
2018-11-29T02:40:12.708Z,98928.33
2018-11-29T02:42:41.844Z,98928.41
2018-11-29T02:45:14.041Z,98922.72
2018-11-29T02:47:42.703Z,98921.32
2018-11-29T02:50:12.238Z,98920.52
2018-11-29T02:52:40.764Z,98909.45
2018-11-29T02:55:10.927Z,98903.36
2018-11-29T02:57:39.559Z,98899.09
2018-11-29T03:00:14.146Z,98905.57
2018-11-29T03:02:42.884Z,98910.09
2018-11-29T03:05:11.736Z,98909.73
2018-11-29T03:07:40.303Z,98910.87
2018-11-29T03:10:10.295Z,98910.13
2018-11-29T03:12:39.003Z,98914.88
2018-11-29T03:15:10.598Z,98919.93
2018-11-29T03:17:39.453Z,98899.46
2018-11-29T03:20:09.546Z,98899.30
2018-11-29T03:22:38.107Z,98893.94
2018-11-29T03:25:12.901Z,98899.49
2018-11-29T03:27:41.558Z,98895.95
2018-11-29T03:30:11.710Z,98900.36
2018-11-29T03:32:40.571Z,98892.67
2018-11-29T03:35:10.320Z,98899.62
2018-11-29T03:37:38.920Z,98895.78
2018-11-29T03:40:10.009Z,98898.98
2018-11-29T03:42:38.551Z,98907.54
2018-11-29T03:45:09.080Z,98897.02
2018-11-29T03:47:38.019Z,98893.48
2018-11-29T03:50:11.943Z,98891.13
2018-11-29T03:52:40.578Z,98885.46
2018-11-29T03:55:10.042Z,98890.09
2018-11-29T03:57:39.470Z,98889.27
2018-11-29T04:00:13.797Z,98890.94
2018-11-29T04:02:42.840Z,98870.48
2018-11-29T04:05:11.533Z,98879.44
2018-11-29T04:07:40.677Z,98877.53
2018-11-29T04:10:11.714Z,98880.52
2018-11-29T04:12:40.457Z,98886.14
2018-11-29T04:15:10.419Z,98882.20
2018-11-29T04:17:41.022Z,98890.30
2018-11-29T04:20:13.220Z,98872.92
2018-11-29T04:22:42.450Z,98870.65
2018-11-29T04:25:12.941Z,98864.36
2018-11-29T04:27:41.591Z,98875.69
2018-11-29T04:30:13.303Z,98894.69
2018-11-29T04:32:42.694Z,98882.55
2018-11-29T04:35:11.926Z,98877.53
2018-11-29T04:37:40.961Z,98872.66
2018-11-29T04:40:13.190Z,98868.64
2018-11-29T04:42:41.757Z,98860.13
2018-11-29T04:45:11.733Z,98860.20
2018-11-29T04:47:40.323Z,98854.52
2018-11-29T04:50:09.080Z,98854.52
2018-11-29T04:52:37.681Z,98860.61
2018-11-29T04:55:07.331Z,98860.32
2018-11-29T04:57:35.913Z,98875.97
2018-11-29T05:00:05.693Z,98887.41
2018-11-29T05:02:34.936Z,98877.20
2018-11-29T05:05:03.601Z,98868.31
2018-11-29T05:07:32.239Z,98869.70
2018-11-29T05:10:00.852Z,98857.77
2018-11-29T05:12:29.411Z,98865.41
2018-11-29T05:14:58.019Z,98855.31
2018-11-29T05:17:26.574Z,98868.34
2018-11-29T05:19:55.296Z,98868.59
2018-11-29T05:22:23.911Z,98856.63
2018-11-29T05:24:53.083Z,98866.34
2018-11-29T05:27:21.611Z,98859.31
2018-11-29T05:29:50.874Z,98855.30
2018-11-29T05:32:19.518Z,98859.64
2018-11-29T05:34:48.662Z,98855.57
2018-11-29T05:37:17.185Z,98853.17
2018-11-29T05:39:45.931Z,98860.68
2018-11-29T05:42:14.491Z,98869.42
2018-11-29T05:44:43.130Z,98865.51
2018-11-29T05:47:11.662Z,98867.33
2018-11-29T05:49:40.210Z,98866.52
2018-11-29T05:52:10.444Z,98858.73
2018-11-29T05:54:39.818Z,98860.42
2018-11-29T05:57:08.586Z,98858.12
2018-11-29T05:59:38.239Z,98867.00
2018-11-29T06:02:07.553Z,98885.42
2018-11-29T06:04:37.198Z,98879.34
2018-11-29T06:07:06.832Z,98883.02
2018-11-29T06:09:36.032Z,98884.13
2018-11-29T06:12:05.136Z,98882.52
2018-11-29T06:14:34.867Z,98874.83
2018-11-29T06:17:03.714Z,98874.27
2018-11-29T06:19:32.324Z,98872.66
2018-11-29T06:22:01.080Z,98868.81
2018-11-29T06:24:30.330Z,98884.71
2018-11-29T06:26:59.627Z,98876.36
2018-11-29T06:29:28.783Z,98874.43
2018-11-29T06:31:57.826Z,98872.09
2018-11-29T06:34:26.531Z,98866.92
2018-11-29T06:36:55.582Z,98871.47
2018-11-29T06:39:24.320Z,98875.33
2018-11-29T06:41:53.935Z,98884.98
2018-11-29T06:44:23.031Z,98884.08
2018-11-29T06:46:52.011Z,98878.07
2018-11-29T06:49:21.003Z,98880.87
2018-11-29T06:51:50.137Z,98886.53
2018-11-29T06:54:19.467Z,98896.41
2018-11-29T06:56:48.083Z,98879.59
2018-11-29T06:59:16.678Z,98877.04
2018-11-29T07:01:45.301Z,98881.31
2018-11-29T07:04:14.298Z,98874.61
2018-11-29T07:06:42.876Z,98869.05
2018-11-29T07:09:11.383Z,98871.09
2018-11-29T07:11:40.975Z,98867.78
2018-11-29T07:14:10.368Z,98859.59
2018-11-29T07:16:38.952Z,98865.69
2018-11-29T07:19:07.522Z,98859.20
2018-11-29T07:21:54.826Z,98864.34
2018-11-29T07:24:24.347Z,98861.52
2018-11-29T07:26:52.999Z,98859.48
2018-11-29T07:29:21.808Z,98863.11
2018-11-29T07:31:50.411Z,98860.20
2018-11-29T07:34:19.703Z,98861.33
2018-11-29T07:36:48.317Z,98861.41
2018-11-29T07:39:17.566Z,98863.11
2018-11-29T07:41:46.182Z,98862.90
2018-11-29T07:44:14.920Z,98860.73
2018-11-29T07:46:43.501Z,98853.84
2018-11-29T07:49:12.722Z,98840.04
2018-11-29T07:51:41.327Z,98838.03
2018-11-29T07:54:10.633Z,98836.20
2018-11-29T07:56:39.836Z,98827.24
2018-11-29T07:59:08.483Z,98821.22
2018-11-29T08:01:37.095Z,98815.11
2018-11-29T08:04:06.018Z,98823.78
2018-11-29T08:06:34.959Z,98820.95
2018-11-29T08:09:03.728Z,98808.92
2018-11-29T08:11:32.273Z,98794.48
2018-11-29T08:14:00.878Z,98794.88
2018-11-29T08:16:29.411Z,98796.34
2018-11-29T08:18:58.111Z,98797.19
2018-11-29T08:21:26.866Z,98795.80
2018-11-29T08:23:55.418Z,98795.22
2018-11-29T08:26:24.106Z,98792.51
2018-11-29T08:28:52.697Z,98793.58
2018-11-29T08:31:21.294Z,98781.36
2018-11-29T08:33:49.997Z,98782.11
2018-11-29T08:36:18.686Z,98785.45
2018-11-29T08:38:47.239Z,98789.14
2018-11-29T08:41:16.302Z,98795.10
2018-11-29T08:43:45.681Z,98793.25
2018-11-29T08:46:14.270Z,98799.23
2018-11-29T08:48:42.822Z,98806.62
2018-11-29T08:51:11.420Z,98800.03
2018-11-29T08:53:39.973Z,98797.42
2018-11-29T08:56:08.590Z,98788.70
2018-11-29T08:58:37.214Z,98791.09
2018-11-29T09:01:05.992Z,98789.91
2018-11-29T09:03:35.248Z,98788.91
2018-11-29T09:06:04.045Z,98784.88
2018-11-29T09:08:32.774Z,98782.36
2018-11-29T09:11:01.395Z,98771.28
2018-11-29T09:13:30.012Z,98776.47
2018-11-29T09:15:58.627Z,98769.70
2018-11-29T09:18:27.295Z,98767.05
2018-11-29T09:20:55.845Z,98765.99
2018-11-29T09:23:24.371Z,98751.45
2018-11-29T09:25:52.969Z,98752.01
2018-11-29T09:28:21.636Z,98746.72
2018-11-29T09:30:50.355Z,98748.67
2018-11-29T09:33:18.854Z,98734.73
2018-11-29T09:35:47.575Z,98740.77
2018-11-29T09:38:16.168Z,98737.63
2018-11-29T09:40:44.806Z,98731.60
2018-11-29T09:43:13.375Z,98733.55
2018-11-29T09:45:42.050Z,98735.95
2018-11-29T09:48:10.675Z,98733.27
2018-11-29T09:50:39.379Z,98725.80
2018-11-29T09:53:08.008Z,98717.78
2018-11-29T09:55:36.653Z,98730.69
2018-11-29T09:58:05.458Z,98722.09
2018-11-29T10:00:34.602Z,98731.80
2018-11-29T10:03:09.548Z,98734.64
2018-11-29T10:05:38.487Z,98733.25
2018-11-29T10:08:11.848Z,98725.43
2018-11-29T10:10:37.047Z,98735.48
2018-11-29T10:13:05.695Z,98734.53
2018-11-29T10:15:34.240Z,98727.77
2018-11-29T10:18:02.870Z,98723.41
2018-11-29T10:20:31.426Z,98705.23
2018-11-29T10:23:00.055Z,98712.48
2018-11-29T10:25:28.603Z,98709.45
2018-11-29T10:27:59.242Z,98708.05
2018-11-29T10:30:32.793Z,98695.08
2018-11-29T10:33:01.503Z,98688.06
2018-11-29T10:35:30.130Z,98685.41
2018-11-29T10:37:58.743Z,98681.77
2018-11-29T10:40:27.351Z,98676.13
2018-11-29T10:42:55.899Z,98679.08
2018-11-29T10:45:24.542Z,98682.50
2018-11-29T10:47:54.298Z,98680.97
2018-11-29T10:50:22.930Z,98675.42
2018-11-29T10:52:51.502Z,98665.58
2018-11-29T10:55:20.531Z,98662.98
2018-11-29T10:57:49.912Z,98665.19
2018-11-29T11:00:28.656Z,98668.58
2018-11-29T11:03:08.632Z,98654.14
2018-11-29T11:05:37.814Z,98643.18
2018-11-29T11:08:08.752Z,98644.88
2018-11-29T11:10:37.019Z,98635.60
2018-11-29T11:13:06.323Z,98633.71
2018-11-29T11:15:35.167Z,98613.63
2018-11-29T11:18:03.944Z,98623.05
2018-11-29T11:20:32.591Z,98611.91
2018-11-29T11:23:01.167Z,98606.08
2018-11-29T11:25:29.705Z,98599.23
2018-11-29T11:27:58.263Z,98603.02
2018-11-29T11:30:26.830Z,98596.28
2018-11-29T11:32:55.427Z,98597.52
2018-11-29T11:35:24.606Z,98593.06
2018-11-29T11:37:53.170Z,98586.50
2018-11-29T11:40:22.452Z,98580.56
2018-11-29T11:42:51.241Z,98578.98
2018-11-29T11:45:20.519Z,98588.16
2018-11-29T11:47:49.097Z,98587.89
2018-11-29T11:50:18.940Z,98585.81
2018-11-29T11:52:47.595Z,98582.63
2018-11-29T11:55:18.922Z,98578.63
2018-11-29T11:57:45.727Z,98585.09
2018-11-29T12:00:21.579Z,98583.56
2018-11-29T12:02:52.642Z,98585.17
2018-11-29T12:05:21.223Z,98580.91
2018-11-29T12:07:49.930Z,98570.88
2018-11-29T12:10:18.499Z,98570.16
2018-11-29T12:12:47.119Z,98567.45
2018-11-29T12:15:16.284Z,98552.94
2018-11-29T12:17:45.954Z,98554.30
2018-11-29T12:20:18.687Z,98550.28
2018-11-29T12:22:47.331Z,98545.96
2018-11-29T12:25:17.058Z,98544.01
2018-11-29T12:27:45.699Z,98532.64
2018-11-29T12:30:17.639Z,98545.00
2018-11-29T12:32:46.355Z,98515.44
2018-11-29T12:35:15.407Z,98506.79
2018-11-29T12:37:44.023Z,98511.59
2018-11-29T12:40:14.830Z,98501.63
2018-11-29T12:42:43.367Z,98496.81
2018-11-29T12:45:13.121Z,98494.46
2018-11-29T12:47:42.051Z,98487.83
2018-11-29T12:50:15.702Z,98486.47
2018-11-29T12:52:44.350Z,98479.95
2018-11-29T12:55:13.939Z,98476.30
2018-11-29T12:57:42.578Z,98478.45
2018-11-29T13:00:13.514Z,98472.34
2018-11-29T13:03:00.514Z,98460.00
2018-11-29T13:05:29.929Z,98459.75
2018-11-29T13:07:58.464Z,98464.17
2018-11-29T13:10:28.128Z,98461.36
2018-11-29T13:12:56.769Z,98452.48
2018-11-29T13:15:26.625Z,98450.23
2018-11-29T13:17:55.954Z,98445.31
2018-11-29T13:20:24.644Z,98454.00
2018-11-29T13:22:53.272Z,98459.17
2018-11-29T13:25:24.146Z,98455.91
2018-11-29T13:27:52.707Z,98451.73
2018-11-29T13:30:22.160Z,98452.53
2018-11-29T13:32:53.803Z,98452.53
2018-11-29T13:35:33.495Z,98453.77
2018-11-29T13:38:13.994Z,98444.71
2018-11-29T13:40:44.358Z,98447.87
2018-11-29T13:43:12.991Z,98445.13
2018-11-29T13:45:41.596Z,98442.72
2018-11-29T13:48:11.096Z,98443.31
2018-11-29T13:50:40.210Z,98431.40
2018-11-29T13:53:08.851Z,98432.41
2018-11-29T13:55:37.615Z,98426.70
2018-11-29T13:58:06.631Z,98429.70
2018-11-29T14:00:35.297Z,98432.29
2018-11-29T14:03:07.547Z,98434.30
2018-11-29T14:05:37.255Z,98435.81
2018-11-29T14:08:06.983Z,98442.81
2018-11-29T14:10:35.806Z,98440.17
2018-11-29T14:13:04.753Z,98437.70
2018-11-29T14:15:33.356Z,98429.58
2018-11-29T14:18:02.019Z,98429.59
2018-11-29T14:20:30.783Z,98421.77
2018-11-29T14:22:59.247Z,98428.70
2018-11-29T14:25:27.759Z,98435.20
2018-11-29T14:27:57.473Z,98429.63
2018-11-29T14:30:28.187Z,98433.98
2018-11-29T14:32:58.056Z,98423.25
2018-11-29T14:35:26.646Z,98422.83
2018-11-29T14:37:55.232Z,98427.92
2018-11-29T14:40:25.942Z,98419.40
2018-11-29T14:42:55.099Z,98413.06
2018-11-29T14:45:26.455Z,98420.16
2018-11-29T14:47:55.484Z,98425.00
2018-11-29T14:50:34.672Z,98411.83
2018-11-29T14:53:03.374Z,98409.20
2018-11-29T14:55:32.784Z,98412.09
2018-11-29T14:58:01.520Z,98410.55
2018-11-29T15:00:30.899Z,98414.69
2018-11-29T15:03:00.506Z,98420.08
2018-11-29T15:05:31.595Z,98420.45
2018-11-29T15:08:00.129Z,98430.23
2018-11-29T15:10:29.259Z,98420.93
2018-11-29T15:12:57.775Z,98418.16
2018-11-29T15:15:26.366Z,98424.39
2018-11-29T15:17:55.372Z,98436.39
2018-11-29T15:20:27.273Z,98441.79
2018-11-29T15:22:56.747Z,98445.66
2018-11-29T15:25:25.459Z,98444.75
2018-11-29T15:27:54.176Z,98436.98
2018-11-29T15:30:23.596Z,98436.38
2018-11-29T15:32:52.218Z,98442.95
2018-11-29T15:35:20.935Z,98440.98
2018-11-29T15:37:49.490Z,98444.00
2018-11-29T15:40:18.663Z,98421.93
2018-11-29T15:42:47.551Z,98416.02
2018-11-29T15:45:18.533Z,98409.69
2018-11-29T15:47:47.188Z,98414.53
2018-11-29T15:50:17.144Z,98408.11
2018-11-29T15:52:46.709Z,98410.11
2018-11-29T15:55:19.257Z,98405.11
2018-11-29T15:57:51.007Z,98412.30
2018-11-29T16:00:21.593Z,98412.91
2018-11-29T16:02:50.984Z,98407.33
2018-11-29T16:05:19.510Z,98416.32
2018-11-29T16:07:48.833Z,98416.19
2018-11-29T16:10:18.848Z,98421.77
2018-11-29T16:12:47.484Z,98426.11
2018-11-29T16:15:16.955Z,98422.66
2018-11-29T16:17:46.264Z,98432.09
2018-11-29T16:20:19.352Z,98433.33
2018-11-29T16:22:49.410Z,98434.59
2018-11-29T16:25:20.824Z,98433.55
2018-11-29T16:27:52.858Z,98430.75
2018-11-29T16:30:28.931Z,98429.43
2018-11-29T16:33:02.180Z,98423.64
2018-11-29T16:35:33.604Z,98425.50
2018-11-29T16:38:04.718Z,98417.38
2018-11-29T16:40:35.855Z,98413.11
2018-11-29T16:43:07.994Z,98408.72
2018-11-29T16:45:39.432Z,98390.71
2018-11-29T16:48:08.677Z,98388.91
2018-11-29T16:50:38.572Z,98390.97
2018-11-29T16:53:08.979Z,98389.08
2018-11-29T16:55:38.473Z,98384.71
2018-11-29T16:58:09.308Z,98383.63
2018-11-29T17:00:38.097Z,98382.14
2018-11-29T17:03:07.128Z,98391.45
2018-11-29T17:05:35.839Z,98391.54
2018-11-29T17:08:04.501Z,98395.50
2018-11-29T17:10:33.812Z,98400.27
2018-11-29T17:13:06.704Z,98404.53
2018-11-29T17:15:35.332Z,98403.09
2018-11-29T17:18:04.367Z,98390.08
2018-11-29T17:20:33.581Z,98395.78
2018-11-29T17:23:02.771Z,98400.92
2018-11-29T17:25:31.535Z,98405.14
2018-11-29T17:28:00.252Z,98395.61
2018-11-29T17:30:28.814Z,98405.06
2018-11-29T17:32:58.480Z,98404.50
2018-11-29T17:35:27.091Z,98400.09
2018-11-29T17:37:57.139Z,98395.84
2018-11-29T17:40:25.942Z,98390.62
2018-11-29T17:42:55.354Z,98388.38
2018-11-29T17:45:26.304Z,98387.44
2018-11-29T17:47:57.311Z,98377.80
2018-11-29T17:50:28.378Z,98379.34
2018-11-29T17:52:57.620Z,98366.56
2018-11-29T17:55:26.771Z,98361.31
2018-11-29T17:57:55.447Z,98355.73
2018-11-29T18:00:25.477Z,98353.05
2018-11-29T18:02:54.131Z,98353.70
2018-11-29T18:05:22.831Z,98351.77
2018-11-29T18:07:51.425Z,98350.48
2018-11-29T18:10:26.494Z,98353.38
2018-11-29T18:12:57.986Z,98350.08
2018-11-29T18:15:28.092Z,98361.63
2018-11-29T18:17:56.610Z,98353.23
2018-11-29T18:20:26.110Z,98350.16
2018-11-29T18:22:54.863Z,98348.38
2018-11-29T18:25:23.595Z,98344.77
2018-11-29T18:27:52.722Z,98340.78
2018-11-29T18:30:22.502Z,98333.77
2018-11-29T18:32:51.133Z,98338.17
2018-11-29T18:35:19.745Z,98334.88
2018-11-29T18:37:48.410Z,98326.59
2018-11-29T18:40:19.173Z,98320.04
2018-11-29T18:42:49.152Z,98324.23
2018-11-29T18:45:18.682Z,98311.88
2018-11-29T18:47:48.610Z,98327.80
2018-11-29T18:50:19.256Z,98310.27
2018-11-29T18:52:48.550Z,98302.30
2018-11-29T18:55:17.586Z,98304.56
2018-11-29T18:57:46.241Z,98298.45
2018-11-29T19:00:28.050Z,98297.57
2018-11-29T19:02:57.381Z,98305.75
2018-11-29T19:05:25.856Z,98300.63
2018-11-29T19:07:54.501Z,98302.23
2018-11-29T19:10:23.362Z,98292.59
2018-11-29T19:12:57.551Z,98275.25
2018-11-29T19:15:26.211Z,98253.64
2018-11-29T19:17:54.768Z,98254.85
2018-11-29T19:20:23.323Z,98282.34
2018-11-29T19:22:51.975Z,98328.83
2018-11-29T19:25:21.064Z,98339.44
2018-11-29T19:27:50.542Z,98341.99
2018-11-29T19:30:21.530Z,98361.45
2018-11-29T19:32:54.686Z,98376.06
2018-11-29T19:35:23.492Z,98367.66
2018-11-29T19:37:52.015Z,98330.13
2018-11-29T19:40:20.602Z,98311.98
2018-11-29T19:42:49.238Z,98317.94
2018-11-29T19:45:17.852Z,98323.59
2018-11-29T19:47:46.732Z,98297.48
2018-11-29T19:50:18.194Z,98315.45
2018-11-29T19:52:50.186Z,98309.30
2018-11-29T19:55:22.409Z,98311.93
2018-11-29T19:57:54.317Z,98346.30
2018-11-29T20:00:24.935Z,98374.08
2018-11-29T20:02:56.333Z,98377.86
2018-11-29T20:05:25.967Z,98364.00
2018-11-29T20:07:57.202Z,98328.51
2018-11-29T20:10:28.415Z,98312.22
2018-11-29T20:13:04.211Z,98307.95
2018-11-29T20:15:35.646Z,98311.79
2018-11-29T20:18:07.088Z,98325.69
2018-11-29T20:20:38.247Z,98336.12
2018-11-29T20:23:08.753Z,98334.66
2018-11-29T20:25:40.157Z,98320.45
2018-11-29T20:28:10.040Z,98330.59
2018-11-29T20:30:40.449Z,98330.50
2018-11-29T20:33:10.672Z,98338.47
2018-11-29T20:35:40.966Z,98343.69
2018-11-29T20:38:12.760Z,98330.81
2018-11-29T20:40:45.241Z,98331.30
2018-11-29T20:43:16.390Z,98323.80
2018-11-29T20:45:49.914Z,98325.77
2018-11-29T20:48:21.653Z,98320.39
2018-11-29T20:50:54.392Z,98325.50
2018-11-29T20:53:27.153Z,98318.98
2018-11-29T20:55:56.818Z,98315.13
2018-11-29T20:58:26.344Z,98314.02
2018-11-29T21:00:57.425Z,98299.48
2018-11-29T21:03:30.397Z,98304.14
2018-11-29T21:06:00.799Z,98303.01
2018-11-29T21:08:29.935Z,98304.48
2018-11-29T21:10:59.323Z,98290.42
2018-11-29T21:13:28.444Z,98285.27
2018-11-29T21:15:57.162Z,98280.28
2018-11-29T21:18:25.836Z,98275.70
2018-11-29T21:20:55.123Z,98277.61
2018-11-29T21:23:23.729Z,98267.11
2018-11-29T21:25:52.527Z,98268.91
2018-11-29T21:28:21.226Z,98267.02
2018-11-29T21:30:50.001Z,98268.77
2018-11-29T21:33:18.752Z,98248.27
2018-11-29T21:35:47.695Z,98243.54
2018-11-29T21:38:18.483Z,98245.11
2018-11-29T21:40:51.987Z,98230.05
2018-11-29T21:43:20.625Z,98226.78
2018-11-29T21:45:49.679Z,98229.32
2018-11-29T21:48:18.472Z,98233.45
2018-11-29T21:50:47.124Z,98243.81
2018-11-29T21:53:15.691Z,98241.02
2018-11-29T21:55:44.458Z,98240.94
2018-11-29T21:58:13.002Z,98238.25
2018-11-29T22:00:41.751Z,98235.04
2018-11-29T22:03:10.382Z,98233.13
2018-11-29T22:05:39.160Z,98241.74
2018-11-29T22:08:07.874Z,98249.58
2018-11-29T22:10:36.539Z,98251.78
2018-11-29T22:13:05.812Z,98240.45
2018-11-29T22:15:34.747Z,98239.13
2018-11-29T22:18:14.848Z,98243.63
2018-11-29T22:20:44.124Z,98242.98
2018-11-29T22:23:12.785Z,98241.45
2018-11-29T22:25:42.038Z,98254.34
2018-11-29T22:28:10.642Z,98265.94
2018-11-29T22:30:39.359Z,98268.63
2018-11-29T22:33:08.714Z,98264.13
2018-11-29T22:35:37.388Z,98270.64
2018-11-29T22:38:06.852Z,98276.28
2018-11-29T22:40:35.551Z,98270.61
2018-11-29T22:43:05.965Z,98280.31
2018-11-29T22:45:35.404Z,98280.31
2018-11-29T22:48:05.225Z,98281.78
2018-11-29T22:50:33.784Z,98278.87
2018-11-29T22:53:02.428Z,98276.18
2018-11-29T22:55:31.077Z,98270.80
2018-11-29T22:57:59.602Z,98276.66
2018-11-29T23:00:59.573Z,98278.83
2018-11-29T23:03:28.156Z,98270.87
2018-11-29T23:05:56.746Z,98276.13
2018-11-29T23:08:25.722Z,98271.17
2018-11-29T23:10:54.641Z,98281.62
2018-11-29T23:13:23.217Z,98284.92
2018-11-29T23:15:51.759Z,98290.19
2018-11-29T23:18:20.335Z,98286.53
2018-11-29T23:20:49.422Z,98270.89
2018-11-29T23:23:18.083Z,98268.78
2018-11-29T23:25:47.259Z,98275.39
2018-11-29T23:28:15.758Z,98273.92
2018-11-29T23:30:44.423Z,98267.87
2018-11-29T23:33:12.974Z,98274.87
2018-11-29T23:35:41.570Z,98276.03
2018-11-29T23:38:10.243Z,98274.05
2018-11-29T23:40:38.812Z,98276.33
2018-11-29T23:43:07.377Z,98273.92
2018-11-29T23:45:35.902Z,98275.14
2018-11-29T23:48:04.495Z,98264.01
2018-11-29T23:50:33.049Z,98270.69
2018-11-29T23:53:01.606Z,98258.59
2018-11-29T23:55:30.443Z,98263.14
2018-11-29T23:57:58.987Z,98252.27
